Terminal Aerodrome Forecast
Issued by NWS Upton, NY

Home | Current Version | Previous Version | Text Only | Print | Product List | Glossary On
Versions: 1 2 3 4 5 6 7 8 9 10 11 12 13 14 15 16 17 18 19 20 21 22 23 24 25 26 27 28 29 30 31 32 33
565
FTUS41 KOKX 272141 AAD
TAFEWR
TAF AMD
KEWR 272141Z 2722/2824 15010KT P6SM FEW060 SCT250
     FM272300 20008KT P6SM FEW070 SCT250
     FM280500 22006KT P6SM SCT250
     FM281700 21010KT P6SM FEW050 SCT250=

USA.gov is the U.S. government's official web portal to all federal, state and local government web resources and services.